Time;durP1;ratioP1;P1;durP2;ratioP2;P2;SDS_P1;SDS_P2;PMS_P1;PMS_P2;Temp;Humidity;BMP_temperature;BMP_pressure;BME280_temperature;BME280_humidity;BME280_pressure;Samples;Min_cycle;Max_cycle;Signal;HPM_P1;HPM_P2
2022/10/11 00:00:35;;;;;;;1.45;1.35;;;;;;;9.67;91.02;101072.84;1735448;82;21371;-91
2022/10/11 00:03:02;;;;;;;1.70;1.27;;;;;;;9.67;90.79;101071.97;1745539;81;21465;-92
2022/10/11 00:05:29;;;;;;;1.70;1.60;;;;;;;9.68;90.71;101072.38;1745650;80;20996;-92
2022/10/11 00:07:56;;;;;;;2.85;1.17;;;;;;;9.67;90.51;101070.66;1746014;82;21228;-93
2022/10/11 00:10:23;;;;;;;4.67;1.45;;;;;;;9.68;90.29;101076.30;1752478;80;20963;-92
2022/10/11 00:12:53;;;;;;;2.45;1.62;;;;;;;9.67;90.10;101070.66;1758752;81;20924;-91
2022/10/11 00:15:21;;;;;;;3.40;1.45;;;;;;;9.65;89.96;101073.38;1759002;81;20968;-91
2022/10/11 00:17:49;;;;;;;4.25;1.70;;;;;;;9.66;90.01;101073.75;1759116;81;21050;-92
2022/10/11 00:20:17;;;;;;;2.47;1.57;;;;;;;9.66;89.97;101075.52;1759434;81;21224;-93
2022/10/11 00:22:44;;;;;;;2.85;1.20;;;;;;;9.65;89.83;101073.81;1758946;80;20981;-90
2022/10/11 00:25:11;;;;;;;2.67;1.50;;;;;;;9.64;89.66;101076.90;1759535;78;20924;-91
2022/10/11 00:27:38;;;;;;;2.35;1.32;;;;;;;9.62;89.44;101069.58;1760828;78;20955;-92
2022/10/11 00:30:08;;;;;;;3.42;1.35;;;;;;;9.54;89.36;101062.11;1744320;78;20825;-90
2022/10/11 00:32:40;;;;;;;1.05;1.05;;;;;;;9.60;89.18;101074.03;1760935;78;21089;-91
2022/10/11 00:35:06;;;;;;;2.10;1.55;;;;;;;9.60;89.13;101074.50;1759794;78;20952;-90
2022/10/11 00:37:34;;;;;;;2.90;1.42;;;;;;;9.60;88.96;101071.89;1759239;81;20920;-91
2022/10/11 00:40:01;;;;;;;3.22;1.35;;;;;;;9.59;88.73;101072.83;1759960;81;20944;-90
2022/10/11 00:42:29;;;;;;;2.22;1.15;;;;;;;9.54;88.56;101071.27;1760103;78;20856;-90
2022/10/11 00:45:27;;;;;;;7.72;1.00;;;;;;;9.57;88.43;101075.51;1758997;80;21193;-92
2022/10/11 00:48:06;;;;;;;3.22;1.17;;;;;;;9.58;88.44;101071.95;1756541;80;20885;-91
2022/10/11 00:50:33;;;;;;;2.15;1.50;;;;;;;9.59;88.16;101073.66;1740995;81;20975;-93
2022/10/11 00:53:05;;;;;;;1.27;0.93;;;;;;;9.60;88.00;101079.27;1741917;81;20940;-92
2022/10/11 00:55:36;;;;;;;2.70;1.37;;;;;;;9.60;87.82;101077.13;1758623;80;20872;-92
2022/10/11 00:58:02;;;;;;;1.90;1.30;;;;;;;9.60;87.47;101075.81;1758721;81;21783;-91
2022/10/11 01:00:31;;;;;;;1.70;1.10;;;;;;;9.58;86.98;101081.58;1758473;81;21015;-93
2022/10/11 01:02:58;;;;;;;1.10;0.93;;;;;;;9.57;86.83;101081.21;1741804;81;20849;-93
2022/10/11 01:05:24;;;;;;;2.02;1.12;;;;;;;9.58;86.67;101086.35;1758619;81;20888;-92
2022/10/11 01:07:50;;;;;;;4.15;1.32;;;;;;;9.58;86.30;101078.97;1758637;81;20940;-92
2022/10/11 01:10:17;;;;;;;4.85;1.07;;;;;;;9.55;86.20;101088.66;1753780;80;21126;-91
2022/10/11 01:12:51;;;;;;;2.02;0.78;;;;;;;9.55;85.97;101084.73;1745158;81;21382;-91
2022/10/11 01:15:24;;;;;;;1.80;1.10;;;;;;;9.57;85.77;101086.45;1744994;81;21382;-90
2022/10/11 01:18:15;;;;;;;3.17;1.00;;;;;;;9.59;85.69;101093.77;1745427;81;20944;-91
2022/10/11 01:21:06;;;;;;;1.20;1.10;;;;;;;9.57;85.45;101089.06;1746259;78;20968;-90
2022/10/11 01:24:08;;;;;;;2.65;1.10;;;;;;;9.59;85.35;101099.01;1743842;78;21139;-87
2022/10/11 01:26:56;;;;;;;1.50;1.00;;;;;;;9.60;85.05;101103.31;1747465;78;20972;-88
2022/10/11 01:29:54;;;;;;;5.08;1.22;;;;;;;9.59;84.80;101100.31;1737057;80;20971;-89
2022/10/11 01:32:32;;;;;;;1.17;1.02;;;;;;;9.59;84.73;101103.78;1719817;81;20940;-90
2022/10/11 01:35:09;;;;;;;4.90;1.10;;;;;;;9.57;84.59;101103.00;1742630;81;20881;-92
2022/10/11 01:37:41;;;;;;;8.03;1.22;;;;;;;9.55;84.56;101113.53;1745653;81;21261;-90
2022/10/11 01:40:24;;;;;;;2.92;1.37;;;;;;;9.54;84.70;101111.85;1745131;81;20912;-90
2022/10/11 01:42:52;;;;;;;1.85;1.07;;;;;;;9.53;84.53;101115.84;1745397;81;20964;-90
2022/10/11 01:45:19;;;;;;;3.33;1.12;;;;;;;9.51;84.47;101112.45;1745748;80;21539;-90
2022/10/11 01:47:45;;;;;;;0.98;0.82;;;;;;;9.50;84.42;101115.53;1745535;81;20830;-90
2022/10/11 01:50:36;;;;;;;3.08;1.92;;;;;;;9.48;84.22;101118.68;1745174;81;21441;-90
2022/10/11 01:53:17;;;;;;;3.58;0.88;;;;;;;9.46;84.08;101115.75;1743678;81;20952;-92
2022/10/11 01:55:52;;;;;;;3.12;1.95;;;;;;;9.45;84.11;101115.35;1744886;81;20905;-92
2022/10/11 01:58:30;;;;;;;3.02;1.30;;;;;;;9.43;84.03;101110.20;1744346;82;20940;-90
2022/10/11 02:01:40;;;;;;;4.90;1.20;;;;;;;9.43;84.12;101112.83;1742920;81;21082;-89
2022/10/11 02:04:33;;;;;;;2.30;1.20;;;;;;;9.45;84.11;101116.22;1745941;81;21231;-91
2022/10/11 02:07:20;;;;;;;6.55;1.07;;;;;;;9.45;84.01;101122.77;1745619;78;20937;-91
2022/10/11 02:09:55;;;;;;;3.12;1.02;;;;;;;9.46;83.87;101119.68;1745335;81;20913;-90
2022/10/11 02:12:40;;;;;;;2.08;1.25;;;;;;;9.46;83.72;101130.16;1758322;80;21405;-89
2022/10/11 02:15:08;;;;;;;3.85;1.47;;;;;;;9.44;83.68;101126.76;1758733;81;20999;-90
2022/10/11 02:17:39;;;;;;;3.62;1.05;;;;;;;9.43;83.70;101132.93;1758677;80;21096;-87
2022/10/11 02:20:12;;;;;;;3.52;1.40;;;;;;;9.42;83.80;101135.14;1759127;81;20908;-90
2022/10/11 02:22:40;;;;;;;1.45;1.10;;;;;;;9.43;83.98;101139.47;1758630;81;20849;-91
2022/10/11 02:25:09;;;;;;;2.42;1.47;;;;;;;9.40;84.12;101134.36;1758810;81;21346;-89
2022/10/11 02:27:38;;;;;;;1.85;1.10;;;;;;;9.38;84.37;101129.66;1758836;81;20937;-90
2022/10/11 02:30:06;;;;;;;3.60;1.00;;;;;;;9.35;84.65;101137.20;1758719;81;21156;-90
2022/10/11 02:32:33;;;;;;;2.85;1.35;;;;;;;9.34;84.90;101132.89;1759847;81;20975;-90
2022/10/11 02:35:00;;;;;;;1.82;1.00;;;;;;;9.32;85.21;101144.73;1758978;80;20951;-90
2022/10/11 02:37:48;;;;;;;4.05;1.42;;;;;;;9.29;85.34;101146.20;1741610;81;20939;-89
2022/10/11 02:40:32;;;;;;;2.33;1.10;;;;;;;9.26;85.54;101145.02;1758862;81;20927;-90
2022/10/11 02:43:04;;;;;;;2.27;1.37;;;;;;;9.21;85.62;101146.16;1758502;81;21136;-89
2022/10/11 02:45:48;;;;;;;1.77;1.42;;;;;;;9.16;85.82;101148.98;1758415;80;20924;-90
2022/10/11 02:48:15;;;;;;;2.62;1.20;;;;;;;9.16;85.96;101146.80;1735836;78;20932;-90
2022/10/11 02:50:41;;;;;;;3.17;1.37;;;;;;;9.12;85.95;101145.65;1759520;78;20936;-90
2022/10/11 02:53:09;;;;;;;2.37;1.30;;;;;;;9.10;85.88;101144.02;1760083;81;20951;-90
2022/10/11 02:55:36;;;;;;;2.05;1.07;;;;;;;9.07;85.94;101151.56;1758659;81;21089;-90
2022/10/11 02:58:03;;;;;;;1.42;1.20;;;;;;;9.06;86.10;101150.31;1758705;81;20940;-90
2022/10/11 03:00:33;;;;;;;3.12;1.30;;;;;;;9.06;86.26;101148.53;1758722;80;21371;-90
2022/10/11 03:03:00;;;;;;;4.25;1.50;;;;;;;9.08;86.33;101153.70;1758606;81;20995;-89
2022/10/11 03:05:26;;;;;;;20.92;2.10;;;;;;;9.08;86.27;101155.02;1758573;81;20869;-90
2022/10/11 03:07:53;;;;;;;1.98;1.10;;;;;;;9.09;86.19;101151.47;1758533;81;21244;-91
2022/10/11 03:10:20;;;;;;;3.00;1.40;;;;;;;9.10;86.15;101155.33;1756885;80;20951;-90
2022/10/11 03:12:47;;;;;;;2.60;1.35;;;;;;;9.10;86.08;101151.41;1745332;81;20960;-89
2022/10/11 03:15:17;;;;;;;2.70;1.12;;;;;;;9.11;86.00;101151.81;1745134;82;20893;-90
2022/10/11 03:17:45;;;;;;;1.47;1.10;;;;;;;9.12;85.92;101153.97;1745129;80;20846;-90
2022/10/11 03:20:11;;;;;;;5.87;1.20;;;;;;;9.12;85.67;101151.34;1745548;81;21327;-90
2022/10/11 03:22:39;;;;;;;1.90;1.22;;;;;;;9.10;85.49;101157.11;1745168;81;21339;-90
2022/10/11 03:25:07;;;;;;;2.58;1.30;;;;;;;9.09;85.46;101154.08;1745161;80;21394;-91
2022/10/11 03:27:36;;;;;;;2.08;1.02;;;;;;;9.09;85.33;101152.78;1745080;80;20869;-90
2022/10/11 03:30:03;;;;;;;5.40;1.50;;;;;;;9.08;85.33;101151.94;1747549;82;20873;-89
2022/10/11 03:32:30;;;;;;;2.80;1.27;;;;;;;9.10;85.31;101160.56;1746405;78;21600;-90
2022/10/11 03:34:56;;;;;;;8.70;1.47;;;;;;;9.10;85.31;101157.95;1745283;81;20885;-89
2022/10/11 03:37:24;;;;;;;1.42;1.32;;;;;;;9.11;85.31;101153.13;1745398;81;20889;-91
2022/10/11 03:39:51;;;;;;;1.67;1.00;;;;;;;9.12;85.17;101158.73;1745240;81;20948;-90
2022/10/11 03:42:17;;;;;;;1.90;1.25;;;;;;;9.13;85.22;101156.95;1746367;81;21339;-89
2022/10/11 03:44:48;;;;;;;5.15;1.10;;;;;;;9.12;85.03;101157.42;1746263;80;22586;-90
2022/10/11 03:47:15;;;;;;;2.65;1.40;;;;;;;9.10;84.92;101155.80;1745895;81;21493;-91
2022/10/11 03:49:42;;;;;;;2.12;1.27;;;;;;;9.07;84.75;101156.80;1747738;78;21004;-90
2022/10/11 03:52:08;;;;;;;1.55;1.10;;;;;;;9.07;84.65;101151.99;1748402;78;20909;-87
2022/10/11 03:54:35;;;;;;;2.83;1.37;;;;;;;9.08;84.56;101153.70;1748315;78;20834;-89
2022/10/11 03:57:04;;;;;;;4.15;2.02;;;;;;;9.08;84.53;101158.47;1747936;78;21108;-90
2022/10/11 03:59:31;;;;;;;3.45;1.45;;;;;;;9.08;84.46;101157.17;1747758;78;21305;-90
2022/10/11 04:02:00;;;;;;;4.80;1.10;;;;;;;9.09;84.35;101167.16;1747928;78;20897;-90
2022/10/11 04:04:27;;;;;;;5.85;1.42;;;;;;;9.08;84.23;101164.17;1748319;78;20880;-89
2022/10/11 04:06:56;;;;;;;3.27;1.17;;;;;;;9.06;84.20;101160.31;1748486;78;20846;-90
2022/10/11 04:09:23;;;;;;;1.35;1.25;;;;;;;9.05;84.08;101161.24;1747929;78;21250;-88
2022/10/11 04:11:53;;;;;;;3.12;1.10;;;;;;;9.05;83.99;101164.33;1755550;78;20963;-88
2022/10/11 04:14:24;;;;;;;4.12;1.42;;;;;;;9.05;83.91;101166.48;1761339;78;20905;-89
2022/10/11 04:16:51;;;;;;;3.27;1.50;;;;;;;9.03;83.66;101169.62;1761305;78;21020;-89
2022/10/11 04:19:18;;;;;;;3.17;2.10;;;;;;;9.05;83.62;101170.87;1761181;78;20857;-89
2022/10/11 04:21:45;;;;;;;1.95;1.52;;;;;;;9.06;83.59;101175.16;1761036;78;21105;-90
2022/10/11 04:24:13;;;;;;;2.37;1.12;;;;;;;9.05;83.50;101173.02;1760244;78;20983;-90
2022/10/11 04:26:41;;;;;;;3.55;1.45;;;;;;;9.05;83.44;101178.25;1759073;81;20987;-91
2022/10/11 04:29:07;;;;;;;3.33;1.30;;;;;;;9.05;83.39;101171.70;1758619;81;20924;-90
2022/10/11 04:31:35;;;;;;;2.67;0.98;;;;;;;9.08;83.32;101172.02;1758576;80;20900;-90
2022/10/11 04:34:02;;;;;;;2.35;1.40;;;;;;;9.07;83.24;101175.54;1758588;81;21137;-90
2022/10/11 04:36:31;;;;;;;1.60;0.72;;;;;;;9.09;83.22;101171.09;1758607;80;20984;-89
2022/10/11 04:39:00;;;;;;;3.42;1.10;;;;;;;9.09;83.00;101173.70;1758779;81;20876;-90
2022/10/11 04:41:28;;;;;;;2.47;1.05;;;;;;;9.08;82.82;101184.64;1758756;80;20927;-91
2022/10/11 04:43:55;;;;;;;3.00;1.07;;;;;;;9.10;82.63;101182.80;1758476;80;20876;-89
2022/10/11 04:46:22;;;;;;;1.52;0.90;;;;;;;9.09;82.47;101188.97;1758646;81;21258;-89
2022/10/11 04:48:50;;;;;;;2.77;2.58;;;;;;;9.09;82.43;101190.71;1758443;81;21049;-88
2022/10/11 04:51:17;;;;;;;2.85;1.30;;;;;;;9.10;82.28;101195.89;1759246;81;20931;-88
2022/10/11 04:53:46;;;;;;;3.47;1.40;;;;;;;9.13;82.21;101193.59;1758765;81;20940;-89
2022/10/11 04:56:17;;;;;;;5.00;1.85;;;;;;;9.13;82.08;101195.73;1760679;79;20931;-89
2022/10/11 04:58:44;;;;;;;4.35;1.60;;;;;;;9.14;81.84;101203.16;1758818;81;21160;-89
2022/10/11 05:01:12;;;;;;;1.57;1.32;;;;;;;9.15;81.70;101194.84;1758581;80;20975;-88
2022/10/11 05:03:40;;;;;;;2.30;1.30;;;;;;;9.15;81.36;101204.84;1759045;81;21015;-90
2022/10/11 05:06:08;;;;;;;2.47;2.10;;;;;;;9.16;81.44;101200.45;1758691;81;21110;-90
2022/10/11 05:08:37;;;;;;;5.65;5.08;;;;;;;9.17;81.28;101204.31;1741645;81;20916;-90
2022/10/11 05:11:09;;;;;;;6.72;5.00;;;;;;;9.17;81.04;101203.00;1758858;81;21035;-92
2022/10/11 05:13:36;;;;;;;2.65;2.35;;;;;;;9.16;80.77;101206.98;1759373;81;20920;-92
2022/10/11 05:16:06;;;;;;;6.58;5.03;;;;;;;9.13;80.40;101204.89;1758971;81;21437;-87
2022/10/11 05:18:35;;;;;;;3.58;1.70;;;;;;;9.12;80.22;101211.53;1758671;80;20939;-89
2022/10/11 05:21:09;;;;;;;2.85;1.17;;;;;;;9.12;80.32;101214.98;1759142;81;20908;-89
2022/10/11 05:23:38;;;;;;;4.90;1.82;;;;;;;9.15;80.18;101217.08;1755012;80;21473;-89
2022/10/11 05:26:05;;;;;;;2.95;1.17;;;;;;;9.15;80.00;101223.16;1759189;80;20889;-90
2022/10/11 05:28:33;;;;;;;3.83;1.27;;;;;;;9.17;79.70;101221.32;1758868;81;20967;-89
2022/10/11 05:31:00;;;;;;;1.85;1.35;;;;;;;9.22;79.76;101222.42;1758715;81;21572;-89
2022/10/11 05:33:27;;;;;;;5.05;1.22;;;;;;;9.27;79.64;101230.91;1759091;80;20837;-88
2022/10/11 05:35:55;;;;;;;4.72;1.25;;;;;;;9.33;79.39;101228.87;1758830;80;21277;-89
2022/10/11 05:38:23;;;;;;;1.75;0.95;;;;;;;9.41;79.13;101229.00;1760618;80;21011;-88
2022/10/11 05:40:53;;;;;;;3.85;1.15;;;;;;;9.49;78.93;101230.36;1761691;78;20932;-89
2022/10/11 05:43:19;;;;;;;1.85;0.98;;;;;;;9.61;78.62;101232.86;1761303;78;20994;-89
2022/10/11 05:45:46;;;;;;;2.90;1.20;;;;;;;9.75;78.33;101236.14;1761519;78;21034;-91
2022/10/11 05:48:13;;;;;;;4.03;0.98;;;;;;;9.85;77.38;101232.63;1761478;78;21185;-90
2022/10/11 05:50:39;;;;;;;3.45;1.00;;;;;;;9.89;77.01;101234.18;1760927;78;20920;-90
2022/10/11 05:53:06;;;;;;;4.42;1.30;;;;;;;9.94;76.93;101233.05;1761083;78;21688;-88
2022/10/11 05:55:40;;;;;;;3.27;0.95;;;;;;;10.08;76.60;101231.08;1761183;78;20939;-89
2022/10/11 05:58:10;;;;;;;4.75;1.35;;;;;;;10.37;76.25;101241.95;1761532;78;21156;-86
2022/10/11 06:00:38;;;;;;;4.65;1.70;;;;;;;10.87;76.18;101237.27;1761381;78;21912;-90
2022/10/11 06:03:05;;;;;;;2.67;1.00;;;;;;;11.48;74.90;101239.74;1761055;78;20940;-89
2022/10/11 06:05:34;;;;;;;4.30;1.20;;;;;;;12.07;72.35;101241.34;1744157;78;21290;-90
2022/10/11 06:08:02;;;;;;;3.55;1.22;;;;;;;12.70;70.36;101247.43;1761219;78;20995;-90
2022/10/11 06:10:29;;;;;;;5.58;0.80;;;;;;;13.42;68.20;101238.66;1760929;78;20968;-89
2022/10/11 06:12:56;;;;;;;2.75;1.47;;;;;;;14.24;66.03;101244.88;1760821;78;21176;-90
2022/10/11 06:15:23;;;;;;;1.65;0.90;;;;;;;14.95;64.19;101245.97;1760379;81;20932;-91
2022/10/11 06:17:52;;;;;;;2.87;0.88;;;;;;;15.41;60.73;101241.46;1742819;81;20979;-90
2022/10/11 06:20:18;;;;;;;1.67;1.07;;;;;;;15.51;58.96;101235.88;1760636;81;20955;-89
2022/10/11 06:22:46;;;;;;;3.02;2.08;;;;;;;15.44;57.77;101242.07;1760354;80;20999;-90
2022/10/11 06:25:12;;;;;;;3.40;1.35;;;;;;;15.44;57.23;101241.23;1760201;80;21001;-89
2022/10/11 06:27:39;;;;;;;2.27;0.75;;;;;;;15.58;57.10;101239.77;1759803;81;20888;-91
2022/10/11 06:30:07;;;;;;;1.72;1.00;;;;;;;15.71;56.40;101243.73;1759407;81;20932;-90
2022/10/11 06:32:33;;;;;;;3.25;1.37;;;;;;;15.67;55.82;101241.78;1759596;81;20888;-89
2022/10/11 06:35:02;;;;;;;2.98;1.00;;;;;;;15.48;55.74;101245.36;1759767;81;21038;-89
2022/10/11 06:37:29;;;;;;;2.83;1.25;;;;;;;15.25;56.26;101245.62;1759805;80;21342;-91
2022/10/11 06:39:56;;;;;;;2.62;1.20;;;;;;;15.01;56.55;101250.35;1759665;81;20889;-92
2022/10/11 06:42:22;;;;;;;1.65;0.88;;;;;;;14.75;56.94;101248.16;1759725;80;20888;-89
2022/10/11 06:44:50;;;;;;;1.72;0.98;;;;;;;14.55;57.12;101251.30;1791813;78;20887;-90
2022/10/11 06:47:17;;;;;;;2.15;0.93;;;;;;;14.36;58.45;101255.13;1791610;78;20883;-90
2022/10/11 06:49:44;;;;;;;0.95;0.90;;;;;;;14.20;58.71;101255.26;1791356;80;21505;-90
2022/10/11 06:52:10;;;;;;;7.97;1.00;;;;;;;14.09;59.24;101257.30;1791460;80;21029;-91
2022/10/11 06:54:39;;;;;;;1.95;0.82;;;;;;;13.86;59.44;101257.44;1791146;80;20883;-90
2022/10/11 06:57:05;;;;;;;1.75;1.27;;;;;;;13.86;59.44;101257.44;1791133;80;20883;-89
2022/10/11 06:59:32;;;;;;;1.60;1.20;;;;;;;13.72;59.60;101261.88;1791067;80;21309;-90
2022/10/11 07:02:00;;;;;;;3.45;1.20;;;;;;;13.55;59.51;101257.68;1791411;80;21482;-89
2022/10/11 07:04:27;;;;;;;2.45;0.88;;;;;;;13.35;59.79;101260.23;1792343;78;20836;-90
2022/10/11 07:06:54;;;;;;;5.95;1.52;;;;;;;13.10;59.95;101266.95;1790915;80;20934;-89
2022/10/11 07:09:22;;;;;;;2.35;1.40;;;;;;;12.87;60.64;101268.31;1791277;80;20907;-90
2022/10/11 07:11:50;;;;;;;1.80;1.20;;;;;;;12.84;61.12;101271.98;1791331;78;20836;-90
2022/10/11 07:14:18;;;;;;;6.17;1.35;;;;;;;13.22;62.01;101256.98;1789972;77;20915;-90
2022/10/11 07:16:45;;;;;;;3.42;1.27;;;;;;;14.01;61.49;101257.41;1789629;77;20891;-89
2022/10/11 07:19:12;;;;;;;3.95;2.10;;;;;;;14.95;60.27;101259.17;1790143;77;20962;-91
2022/10/11 07:21:40;;;;;;;3.17;1.62;;;;;;;15.92;57.68;101262.04;1789760;78;20887;-91
2022/10/11 07:24:07;;;;;;;3.65;1.50;;;;;;;16.84;54.97;101268.95;1787867;80;21330;-91
2022/10/11 07:26:34;;;;;;;1.55;1.20;;;;;;;17.59;52.25;101260.47;1788142;79;21128;-90
2022/10/11 07:29:01;;;;;;;1.45;1.10;;;;;;;18.25;50.87;101255.63;1787964;80;20903;-92
2022/10/11 07:31:28;;;;;;;4.28;1.40;;;;;;;18.83;49.27;101253.48;1788403;80;20868;-91
2022/10/11 07:33:55;;;;;;;2.02;1.10;;;;;;;19.35;47.85;101260.60;1788212;80;20888;-91
2022/10/11 07:36:25;;;;;;;2.35;1.10;;;;;;;19.77;46.89;101254.69;1788374;80;20963;-90
2022/10/11 07:38:53;;;;;;;2.10;0.90;;;;;;;20.26;45.87;101256.09;1787883;80;21451;-92
2022/10/11 07:41:20;;;;;;;1.30;1.20;;;;;;;20.66;44.32;101257.29;1759392;80;20958;-90
2022/10/11 07:43:49;;;;;;;2.45;1.12;;;;;;;21.01;43.55;101261.16;1784452;79;21309;-88
2022/10/11 07:46:17;;;;;;;4.08;1.52;;;;;;;21.37;42.48;101261.32;1788972;80;21755;-88
2022/10/11 07:48:45;;;;;;;1.42;1.00;;;;;;;21.72;41.69;101257.09;1787302;80;20888;-91
2022/10/11 07:51:15;;;;;;;1.82;1.20;;;;;;;22.08;40.63;101249.98;1787324;80;21117;-90
2022/10/11 07:53:45;;;;;;;11.57;9.90;;;;;;;22.32;40.13;101256.09;1787445;79;20883;-87
2022/10/11 07:56:15;;;;;;;1.92;1.55;;;;;;;22.63;39.66;101253.48;1787244;79;20875;-90
2022/10/11 07:58:44;;;;;;;2.45;1.17;;;;;;;22.85;39.35;101246.30;1787595;80;20915;-90
2022/10/11 08:01:10;;;;;;;2.12;1.50;;;;;;;23.06;38.87;101248.64;1758497;80;20934;-89
2022/10/11 08:03:37;;;;;;;2.42;1.32;;;;;;;23.30;38.18;101243.92;1788099;80;21203;-91
2022/10/11 08:06:09;;;;;;;2.45;0.98;;;;;;;23.57;37.64;101243.37;1788404;80;20991;-91
2022/10/11 08:08:36;;;;;;;3.15;0.85;;;;;;;23.83;37.25;101243.29;1788812;80;20907;-89
2022/10/11 08:11:03;;;;;;;4.37;0.82;;;;;;;24.13;36.73;101237.83;1788488;80;21424;-89
2022/10/11 08:13:31;;;;;;;1.67;0.90;;;;;;;24.35;36.69;101244.38;1784136;80;21014;-89
2022/10/11 08:15:57;;;;;;;1.47;0.72;;;;;;;24.54;36.47;101241.88;1782933;80;21182;-90
2022/10/11 08:18:24;;;;;;;1.85;0.70;;;;;;;24.78;35.97;101247.73;1783295;80;20920;-88
2022/10/11 08:20:55;;;;;;;1.87;1.07;;;;;;;25.02;35.24;101244.17;1783994;79;20975;-88
2022/10/11 08:23:25;;;;;;;1.22;1.00;;;;;;;25.18;35.13;101246.47;1784336;78;20963;-88
2022/10/11 08:25:55;;;;;;;1.10;0.60;;;;;;;25.36;34.53;101237.70;1783953;79;20959;-88
2022/10/11 08:28:24;;;;;;;1.67;1.37;;;;;;;25.58;34.08;101233.41;1784306;77;22153;-90
2022/10/11 08:30:52;;;;;;;29.75;26.82;;;;;;;25.74;34.00;101228.97;1784103;77;20911;-91
2022/10/11 08:33:20;;;;;;;3.37;2.02;;;;;;;25.83;33.84;101231.93;1782115;80;20880;-92
2022/10/11 08:35:47;;;;;;;4.12;1.07;;;;;;;25.94;33.71;101232.06;1781520;80;21338;-92
2022/10/11 08:38:15;;;;;;;7.97;6.33;;;;;;;26.10;33.81;101235.14;1781351;79;20967;-92
2022/10/11 08:40:55;;;;;;;2.42;1.72;;;;;;;26.16;32.96;101236.61;1781892;79;21238;-90
2022/10/11 08:43:48;;;;;;;0.90;0.80;;;;;;;26.14;32.42;101236.47;1752915;79;20935;-91
2022/10/11 08:46:15;;;;;;;8.28;7.28;;;;;;;26.17;32.95;101234.78;1781812;80;21357;-90
2022/10/11 08:48:48;;;;;;;6.40;5.70;;;;;;;26.31;32.55;101240.70;1781631;80;21397;-91
2022/10/11 08:51:37;;;;;;;2.00;1.57;;;;;;;26.42;31.90;101238.93;1781514;79;20880;-91
2022/10/11 08:54:32;;;;;;;1.62;0.85;;;;;;;26.25;31.78;101235.53;1781192;80;21815;-91
2022/10/11 08:57:00;;;;;;;;;;;;;;;26.10;32.55;101236.49;1785056;80;21026;-91
2022/10/11 08:59:38;;;;;;;2.85;1.27;;;;;;;26.23;33.24;101231.35;1782223;79;20113;-91
2022/10/11 09:02:45;;;;;;;2.58;1.00;;;;;;;26.29;32.61;101236.53;1782291;80;20951;-93
2022/10/11 09:05:16;;;;;;;5.20;0.90;;;;;;;26.21;32.38;101234.73;1782283;79;20939;-89
2022/10/11 09:08:10;;;;;;;2.15;0.90;;;;;;;26.28;32.80;101233.02;1782222;80;21153;-91
2022/10/11 09:11:01;;;;;;;1.55;0.78;;;;;;;26.25;32.36;101234.18;1764386;81;20937;-90
2022/10/11 09:13:41;;;;;;;1.75;0.75;;;;;;;26.36;32.46;101238.81;1693098;84;20884;-91
2022/10/11 09:16:34;;;;;;;0.95;0.53;;;;;;;26.52;32.84;101237.84;1727237;83;20948;-92
2022/10/11 09:19:54;;;;;;;2.00;1.37;;;;;;;26.67;32.50;101233.36;1698415;84;20960;-91
2022/10/11 09:22:50;;;;;;;3.12;0.80;;;;;;;26.80;32.07;101239.46;1727215;83;21057;-90
2022/10/11 09:27:56;;;;;;;2.12;0.98;;;;;;;27.07;31.55;101235.30;1798736;79;22535;-90
2022/10/11 09:30:23;;;;;;;0.80;0.55;;;;;;;27.13;31.31;101235.91;1775322;81;20893;-92
2022/10/11 09:33:11;;;;;;;2.60;0.70;;;;;;;27.16;31.83;101234.17;1774925;80;20872;-91
2022/10/11 09:35:45;;;;;;;2.80;1.12;;;;;;;27.20;31.65;101234.66;1774994;80;20908;-90
2022/10/11 09:38:38;;;;;;;4.87;1.67;;;;;;;27.20;31.06;101231.44;1774987;81;20893;-91
2022/10/11 09:41:19;;;;;;;2.40;0.93;;;;;;;27.14;31.62;101236.22;1749849;81;20983;-91
2022/10/11 09:43:49;;;;;;;3.27;0.88;;;;;;;27.01;31.16;101227.47;1774985;80;20984;-89
2022/10/11 09:46:30;;;;;;;4.05;0.80;;;;;;;27.12;31.59;101227.48;1775267;80;21080;-91
2022/10/11 09:49:06;;;;;;;1.75;1.15;;;;;;;27.28;31.52;101230.03;1775409;80;21585;-91
2022/10/11 09:51:32;;;;;;;67.82;61.85;;;;;;;27.27;30.77;101223.48;1751343;81;20947;-89
2022/10/11 09:54:04;;;;;;;3.35;2.10;;;;;;;27.21;30.79;101218.84;1751723;80;20972;-90
2022/10/11 09:56:33;;;;;;;3.12;2.83;;;;;;;27.08;31.46;101228.39;1776072;80;21402;-90
2022/10/11 09:59:28;;;;;;;1.57;1.07;;;;;;;27.17;31.42;101222.89;1776010;80;21063;-91
2022/10/11 10:02:20;;;;;;;3.33;0.70;;;;;;;27.25;31.28;101220.97;1776070;81;20932;-92
2022/10/11 10:05:00;;;;;;;1.45;1.35;;;;;;;27.28;31.33;101227.34;1778651;78;20907;-93
2022/10/11 10:07:30;;;;;;;3.75;1.07;;;;;;;27.14;30.70;101217.89;1841708;78;20890;-92
2022/10/11 10:09:57;;;;;;;1.60;1.02;;;;;;;27.03;30.78;101221.88;1841064;78;20918;-91
2022/10/11 10:12:27;;;;;;;2.98;0.60;;;;;;;26.90;30.73;101218.99;1841841;78;20879;-90
2022/10/11 10:15:15;;;;;;;1.80;0.60;;;;;;;26.65;31.72;101217.39;1841705;78;20942;-92
2022/10/11 10:17:50;;;;;;;2.37;0.98;;;;;;;26.69;31.65;101211.66;1841674;78;20914;-93
2022/10/11 10:20:31;;;;;;;3.08;1.07;;;;;;;26.75;32.09;101221.18;1841673;78;20922;-92
2022/10/11 10:23:05;;;;;;;4.10;1.00;;;;;;;26.82;31.42;101204.61;1841957;78;21348;-91
2022/10/11 10:25:38;;;;;;;1.12;0.70;;;;;;;26.93;31.62;101215.44;1839897;78;21592;-93
2022/10/11 10:28:23;;;;;;;1.72;0.88;;;;;;;27.02;31.25;101212.14;1779041;79;20973;-91
2022/10/11 10:30:58;;;;;;;1.55;0.60;;;;;;;27.26;30.99;101208.36;1779304;80;20918;-92
2022/10/11 10:33:28;;;;;;;1.20;0.70;;;;;;;27.51;30.46;101215.59;1779750;80;20985;-91
2022/10/11 10:36:01;;;;;;;4.12;1.10;;;;;;;27.42;30.49;101215.39;1771869;80;20954;-89
2022/10/11 10:38:46;;;;;;;1.22;0.60;;;;;;;27.13;30.74;101208.16;1771022;79;21170;-87
2022/10/11 10:41:13;;;;;;;2.35;0.98;;;;;;;26.75;31.31;101208.23;1770854;76;20860;-90
2022/10/11 10:43:42;;;;;;;2.62;0.80;;;;;;;26.30;31.62;101209.95;1743774;78;21008;-91
2022/10/11 10:46:43;;;;;;;0.72;0.72;;;;;;;25.81;31.84;101203.91;1769914;81;20923;-91
2022/10/11 10:49:39;;;;;;;2.35;1.00;;;;;;;25.10;33.22;101216.48;1794048;79;20934;-90
2022/10/11 10:52:30;;;;;;;6.50;1.20;;;;;;;24.28;34.42;101216.58;1794525;80;21361;-88
2022/10/11 10:55:19;;;;;;;2.15;1.00;;;;;;;23.61;35.51;101215.27;1794400;80;20883;-90
2022/10/11 10:58:26;;;;;;;1.87;0.78;;;;;;;22.98;36.49;101211.11;1794582;80;20888;-92
2022/10/11 11:01:02;;;;;;;2.77;1.00;;;;;;;22.47;37.78;101208.26;1794303;80;20896;-91
2022/10/11 11:03:58;;;;;;;3.95;1.75;;;;;;;22.04;38.57;101217.05;1785015;79;20892;-93
2022/10/11 11:06:38;;;;;;;2.65;1.50;;;;;;;21.77;39.27;101212.11;1788637;80;21231;-91
2022/10/11 11:09:48;;;;;;;1.32;1.20;;;;;;;21.62;40.04;101206.94;1793620;80;21504;-91
2022/10/11 11:12:47;;;;;;;2.80;1.20;;;;;;;21.52;39.88;101201.63;1793784;80;20963;-91
2022/10/11 11:15:21;;;;;;;2.87;1.35;;;;;;;21.14;40.74;101205.31;1767039;80;21519;-91
2022/10/11 11:18:29;;;;;;;1.90;0.85;;;;;;;20.80;41.03;101220.51;1794650;78;20966;-87
2022/10/11 11:21:33;;;;;;;3.33;1.40;;;;;;;20.53;42.06;101212.74;1730031;83;21261;-93
2022/10/11 11:24:32;;;;;;;2.65;1.22;;;;;;;20.19;42.38;101225.67;1729691;82;20939;-94
2022/10/11 11:27:21;;;;;;;3.15;0.78;;;;;;;19.93;43.29;101216.88;1736725;82;20895;-93
2022/10/11 11:30:08;;;;;;;2.70;1.07;;;;;;;19.72;44.51;101208.16;1739820;82;20911;-93
2022/10/11 11:33:11;;;;;;;3.52;1.62;;;;;;;19.46;44.49;101205.48;1741362;82;21029;-91
2022/10/11 11:35:44;;;;;;;8.50;5.47;;;;;;;19.16;45.12;101214.80;1739835;81;21790;-93
2022/10/11 11:38:25;;;;;;;4.87;2.75;;;;;;;18.94;45.84;101215.81;1741576;82;20923;-92
2022/10/11 11:40:56;;;;;;;59.13;49.08;;;;;;;18.72;46.43;101217.64;1741599;82;20971;-89
2022/10/11 11:43:37;;;;;;;4.62;3.30;;;;;;;18.55;46.70;101220.88;1741835;82;21158;-92
2022/10/11 11:46:12;;;;;;;6.53;1.62;;;;;;;18.41;46.99;101220.22;1741501;82;21487;-91
2022/10/11 11:48:38;;;;;;;;;;;;;;;18.30;47.51;101221.60;1744081;82;21345;-88
2022/10/11 11:51:33;;;;;;;5.20;4.70;;;;;;;18.24;48.45;101219.45;1741111;82;20475;-89
2022/10/11 11:54:20;;;;;;;4.90;1.70;;;;;;;18.08;48.53;101221.70;1747234;79;20903;-90
2022/10/11 11:57:04;;;;;;;4.17;1.45;;;;;;;17.95;49.07;101216.05;1800952;79;20966;-92
2022/10/11 12:00:03;;;;;;;1.85;1.75;;;;;;;17.93;49.85;101217.98;1800998;79;20883;-92